In Rescue
 
Open Full Screen Window  High Contrast Mode
Wind Gusting 00 knots
03
January 28, 2020 10:39 PM CST
Present Weather: Mist
Weather Information
Wind Direction
  280 °
Wind Speed
  03 kt (3 mph)
Wind Gust
  00 kt (0 mph)
Altimeter
30.15 in
Visibility
5 SM
Temperature
-08° C
18° F
Dewpoint
-10° C
14° F
Humidity
86%
1hr Rain Fall
00.00 in.
24hr Rain Fall
00.00 in.
Sky Condition
Overcast @ 700 ft
IFR

METAR KACQ 290439Z AUTO 28003KT 5SM BR OVC007 M08/M10 A3015 RMK AO2

FAA Disclaimer: The data displayed is for advisory purposes only and is not to be used for flight planning or operations.